Pagina principale
METAR-TAF:

METAR-TAF

Aeroporti :

Comiso, Italia

Aeroporto di Comiso

latitudine: 36-59-30N, longitudine: 14-36-25E, altezza: 190 m

Osservazione

Il bollettino è stato emesso 50 minuti fa, alle 19:50 UTC
Vento 5 kt da sud/sud-est, variando fra est/sud-est e sud/sud-ovest
Temperature 22°C
Umidità 83%
Pressione 1009 hPa
Visibilità 10 km o più
Poco nuvoloso ad un'altezza di 2000 ft

METAR: LICB 251950Z 15005KT 110V200 9999 FEW020 22/19 Q1009

Ora: 22:40 (20:40 UTC)

Previsione

Il bollettino è stato emesso 3 ore e 40 minuti fa, alle 17:00 UTC
Previsione valida dal 25 alle 18 UTC al 26 alle 03 UTC
Vento 14 kt da ovest
Visibilità 10 km o più
nessuna nube inferiore a 1500 m e nessun cumulonembo

TAF: LICB 251700Z 2518/2603 26014KT CAVOK

Osservazioni e previsioni meteorologiche di più di 4000 aeroporti (messaggi METAR e TAF).

Le stazioni disponibili sono rappresentate dai dischi gialli e rossi sulla carta.

Puntare il mouse per vedere il nome della stazione.

Clicca sopra per visualizzare le osservazioni e previsioni meteorologiche.

Per cambiare la mappa : fare clic sui pulsanti verdi con una croce nera per ingrandire, il pulsante verde con un trattino per diminuire, o sulla freccia verde per le mappe adiacenti.


METAR-TAF: